sensor_id;sensor_type;location;lat;lon;timestamp;temperature;humidity
57108;DHT22;42987;52.916;6.542;2024-02-21T00:02:12;9.80;99.90
57108;DHT22;42987;52.916;6.542;2024-02-21T00:04:37;9.80;99.90
57108;DHT22;42987;52.916;6.542;2024-02-21T00:07:04;9.80;99.90
57108;DHT22;42987;52.916;6.542;2024-02-21T00:09:30;9.80;99.90
57108;DHT22;42987;52.916;6.542;2024-02-21T00:11:59;9.80;99.90
57108;DHT22;42987;52.916;6.542;2024-02-21T00:14:26;9.70;99.90
57108;DHT22;42987;52.916;6.542;2024-02-21T00:16:52;9.70;99.90
57108;DHT22;42987;52.916;6.542;2024-02-21T00:19:17;9.70;99.90
57108;DHT22;42987;52.916;6.542;2024-02-21T00:21:43;9.70;99.90
57108;DHT22;42987;52.916;6.542;2024-02-21T00:24:09;9.70;99.90
57108;DHT22;42987;52.916;6.542;2024-02-21T00:26:35;9.70;99.90
57108;DHT22;42987;52.916;6.542;2024-02-21T00:29:00;9.80;99.90
57108;DHT22;42987;52.916;6.542;2024-02-21T00:31:29;9.70;99.90
57108;DHT22;42987;52.916;6.542;2024-02-21T00:33:54;9.70;99.90
57108;DHT22;42987;52.916;6.542;2024-02-21T00:36:20;9.70;99.90
57108;DHT22;42987;52.916;6.542;2024-02-21T00:38:46;9.70;99.90
57108;DHT22;42987;52.916;6.542;2024-02-21T00:41:12;9.70;99.90
57108;DHT22;42987;52.916;6.542;2024-02-21T00:43:37;9.70;99.90
57108;DHT22;42987;52.916;6.542;2024-02-21T00:46:06;9.70;99.90
57108;DHT22;42987;52.916;6.542;2024-02-21T00:48:31;9.70;99.90
57108;DHT22;42987;52.916;6.542;2024-02-21T00:50:57;9.70;99.90
57108;DHT22;42987;52.916;6.542;2024-02-21T00:53:23;9.70;99.90
57108;DHT22;42987;52.916;6.542;2024-02-21T00:55:49;9.70;99.90
57108;DHT22;42987;52.916;6.542;2024-02-21T00:58:15;9.70;99.90
57108;DHT22;42987;52.916;6.542;2024-02-21T01:00:40;9.70;99.90
57108;DHT22;42987;52.916;6.542;2024-02-21T01:03:06;9.60;99.90
57108;DHT22;42987;52.916;6.542;2024-02-21T01:05:32;9.60;99.90
57108;DHT22;42987;52.916;6.542;2024-02-21T01:07:58;9.60;99.90
57108;DHT22;42987;52.916;6.542;2024-02-21T01:10:24;9.60;99.90
57108;DHT22;42987;52.916;6.542;2024-02-21T01:12:49;9.50;99.90
57108;DHT22;42987;52.916;6.542;2024-02-21T01:15:15;9.50;99.90
57108;DHT22;42987;52.916;6.542;2024-02-21T01:17:41;9.50;99.90
57108;DHT22;42987;52.916;6.542;2024-02-21T01:20:08;9.40;99.90
57108;DHT22;42987;52.916;6.542;2024-02-21T01:22:33;9.40;99.90
57108;DHT22;42987;52.916;6.542;2024-02-21T01:24:59;9.40;99.90
57108;DHT22;42987;52.916;6.542;2024-02-21T01:27:25;9.40;99.90
57108;DHT22;42987;52.916;6.542;2024-02-21T01:29:51;9.40;99.90
57108;DHT22;42987;52.916;6.542;2024-02-21T01:32:17;9.30;99.90
57108;DHT22;42987;52.916;6.542;2024-02-21T01:34:43;9.40;99.90
57108;DHT22;42987;52.916;6.542;2024-02-21T01:37:08;9.40;99.90
57108;DHT22;42987;52.916;6.542;2024-02-21T01:39:35;9.40;99.90
57108;DHT22;42987;52.916;6.542;2024-02-21T01:42:01;9.30;99.90
57108;DHT22;42987;52.916;6.542;2024-02-21T01:44:27;9.40;99.90
57108;DHT22;42987;52.916;6.542;2024-02-21T01:46:53;9.30;99.90
57108;DHT22;42987;52.916;6.542;2024-02-21T01:49:19;9.30;99.90
57108;DHT22;42987;52.916;6.542;2024-02-21T01:51:46;9.30;99.90
57108;DHT22;42987;52.916;6.542;2024-02-21T01:54:14;9.30;99.90
57108;DHT22;42987;52.916;6.542;2024-02-21T01:56:42;9.30;99.90
57108;DHT22;42987;52.916;6.542;2024-02-21T01:59:08;9.20;99.90
57108;DHT22;42987;52.916;6.542;2024-02-21T02:01:34;9.20;99.90
57108;DHT22;42987;52.916;6.542;2024-02-21T02:04:00;9.20;99.90
57108;DHT22;42987;52.916;6.542;2024-02-21T02:06:27;9.20;99.90
57108;DHT22;42987;52.916;6.542;2024-02-21T02:08:53;9.20;99.90
57108;DHT22;42987;52.916;6.542;2024-02-21T02:11:20;9.20;99.90
57108;DHT22;42987;52.916;6.542;2024-02-21T02:13:45;9.10;99.90
57108;DHT22;42987;52.916;6.542;2024-02-21T02:16:11;9.10;99.90
57108;DHT22;42987;52.916;6.542;2024-02-21T02:18:37;9.10;99.90
57108;DHT22;42987;52.916;6.542;2024-02-21T02:21:05;9.10;99.90
57108;DHT22;42987;52.916;6.542;2024-02-21T02:23:34;9.10;99.90
57108;DHT22;42987;52.916;6.542;2024-02-21T02:26:00;9.10;99.90
57108;DHT22;42987;52.916;6.542;2024-02-21T02:28:33;9.00;99.90
57108;DHT22;42987;52.916;6.542;2024-02-21T02:30:59;9.00;99.90
57108;DHT22;42987;52.916;6.542;2024-02-21T02:33:24;9.00;99.90
57108;DHT22;42987;52.916;6.542;2024-02-21T02:35:53;9.00;99.90
57108;DHT22;42987;52.916;6.542;2024-02-21T02:38:19;9.00;99.90
57108;DHT22;42987;52.916;6.542;2024-02-21T02:40:44;9.00;99.90
57108;DHT22;42987;52.916;6.542;2024-02-21T02:43:10;9.00;99.90
57108;DHT22;42987;52.916;6.542;2024-02-21T02:45:36;9.00;99.90
57108;DHT22;42987;52.916;6.542;2024-02-21T02:48:02;9.00;99.90
57108;DHT22;42987;52.916;6.542;2024-02-21T02:50:28;8.90;99.90
57108;DHT22;42987;52.916;6.542;2024-02-21T02:52:54;8.90;99.90
57108;DHT22;42987;52.916;6.542;2024-02-21T02:55:20;9.00;99.90
57108;DHT22;42987;52.916;6.542;2024-02-21T02:57:46;8.90;99.90
57108;DHT22;42987;52.916;6.542;2024-02-21T03:00:13;9.00;99.90
57108;DHT22;42987;52.916;6.542;2024-02-21T03:02:41;8.90;99.90
57108;DHT22;42987;52.916;6.542;2024-02-21T03:05:15;8.90;99.90
57108;DHT22;42987;52.916;6.542;2024-02-21T03:07:42;9.00;99.90
57108;DHT22;42987;52.916;6.542;2024-02-21T03:10:08;8.90;99.90
57108;DHT22;42987;52.916;6.542;2024-02-21T03:12:35;8.90;99.90
57108;DHT22;42987;52.916;6.542;2024-02-21T03:15:00;8.90;99.90
57108;DHT22;42987;52.916;6.542;2024-02-21T03:17:26;8.90;99.90
57108;DHT22;42987;52.916;6.542;2024-02-21T03:19:55;9.00;99.90
57108;DHT22;42987;52.916;6.542;2024-02-21T03:22:25;9.00;99.90
57108;DHT22;42987;52.916;6.542;2024-02-21T03:24:51;8.90;99.90
57108;DHT22;42987;52.916;6.542;2024-02-21T03:27:17;8.90;99.90
57108;DHT22;42987;52.916;6.542;2024-02-21T03:29:43;9.00;99.90
57108;DHT22;42987;52.916;6.542;2024-02-21T03:32:09;9.00;99.90
57108;DHT22;42987;52.916;6.542;2024-02-21T03:34:35;8.90;99.90
57108;DHT22;42987;52.916;6.542;2024-02-21T03:37:01;8.90;99.90
57108;DHT22;42987;52.916;6.542;2024-02-21T03:39:27;8.90;99.90
57108;DHT22;42987;52.916;6.542;2024-02-21T03:41:53;8.90;99.90
57108;DHT22;42987;52.916;6.542;2024-02-21T03:44:19;8.90;99.90
57108;DHT22;42987;52.916;6.542;2024-02-21T03:46:44;8.90;99.90
57108;DHT22;42987;52.916;6.542;2024-02-21T03:49:10;8.90;99.90
57108;DHT22;42987;52.916;6.542;2024-02-21T03:51:37;8.90;99.90
57108;DHT22;42987;52.916;6.542;2024-02-21T03:54:03;9.00;99.90
57108;DHT22;42987;52.916;6.542;2024-02-21T03:56:28;8.90;99.90
57108;DHT22;42987;52.916;6.542;2024-02-21T03:58:54;8.90;99.90
57108;DHT22;42987;52.916;6.542;2024-02-21T04:01:20;8.90;99.90
57108;DHT22;42987;52.916;6.542;2024-02-21T04:03:46;8.90;99.90
57108;DHT22;42987;52.916;6.542;2024-02-21T04:06:12;8.90;99.90
57108;DHT22;42987;52.916;6.542;2024-02-21T04:08:39;8.90;99.90
57108;DHT22;42987;52.916;6.542;2024-02-21T04:11:05;8.90;99.90
57108;DHT22;42987;52.916;6.542;2024-02-21T04:13:30;8.90;99.90
57108;DHT22;42987;52.916;6.542;2024-02-21T04:15:56;8.90;99.90
57108;DHT22;42987;52.916;6.542;2024-02-21T04:18:22;8.90;99.90
57108;DHT22;42987;52.916;6.542;2024-02-21T04:20:50;8.90;99.90
57108;DHT22;42987;52.916;6.542;2024-02-21T04:23:15;8.90;99.90
57108;DHT22;42987;52.916;6.542;2024-02-21T04:25:41;8.90;99.90
57108;DHT22;42987;52.916;6.542;2024-02-21T04:28:07;8.90;99.90
57108;DHT22;42987;52.916;6.542;2024-02-21T04:30:33;8.90;99.90
57108;DHT22;42987;52.916;6.542;2024-02-21T04:32:58;8.90;99.90
57108;DHT22;42987;52.916;6.542;2024-02-21T04:35:24;8.90;99.90
57108;DHT22;42987;52.916;6.542;2024-02-21T04:37:50;8.90;99.90
57108;DHT22;42987;52.916;6.542;2024-02-21T04:40:16;8.90;99.90
57108;DHT22;42987;52.916;6.542;2024-02-21T04:42:42;8.90;99.90
57108;DHT22;42987;52.916;6.542;2024-02-21T04:45:08;8.90;99.90
57108;DHT22;42987;52.916;6.542;2024-02-21T04:47:34;8.90;99.90
57108;DHT22;42987;52.916;6.542;2024-02-21T04:50:00;8.90;99.90
57108;DHT22;42987;52.916;6.542;2024-02-21T04:52:26;8.90;99.90
57108;DHT22;42987;52.916;6.542;2024-02-21T04:54:51;8.90;99.90
57108;DHT22;42987;52.916;6.542;2024-02-21T04:57:17;8.90;99.90
57108;DHT22;42987;52.916;6.542;2024-02-21T04:59:46;8.90;99.90
57108;DHT22;42987;52.916;6.542;2024-02-21T05:02:13;8.90;99.90
57108;DHT22;42987;52.916;6.542;2024-02-21T05:04:43;8.90;99.90
57108;DHT22;42987;52.916;6.542;2024-02-21T05:07:09;8.80;99.90
57108;DHT22;42987;52.916;6.542;2024-02-21T05:09:37;8.90;99.90
57108;DHT22;42987;52.916;6.542;2024-02-21T05:12:03;8.90;99.90
57108;DHT22;42987;52.916;6.542;2024-02-21T05:14:29;8.90;99.90
57108;DHT22;42987;52.916;6.542;2024-02-21T05:16:55;8.90;99.90
57108;DHT22;42987;52.916;6.542;2024-02-21T05:19:20;8.90;99.90
57108;DHT22;42987;52.916;6.542;2024-02-21T05:21:46;8.90;99.90
57108;DHT22;42987;52.916;6.542;2024-02-21T05:24:12;8.90;99.90
57108;DHT22;42987;52.916;6.542;2024-02-21T05:26:38;8.90;99.90
57108;DHT22;42987;52.916;6.542;2024-02-21T05:29:04;8.90;99.90
57108;DHT22;42987;52.916;6.542;2024-02-21T05:34:18;9.00;99.90
57108;DHT22;42987;52.916;6.542;2024-02-21T05:36:44;8.90;99.90
57108;DHT22;42987;52.916;6.542;2024-02-21T05:39:11;8.90;99.90
57108;DHT22;42987;52.916;6.542;2024-02-21T05:41:37;8.90;99.90
57108;DHT22;42987;52.916;6.542;2024-02-21T05:44:03;8.90;99.90
57108;DHT22;42987;52.916;6.542;2024-02-21T05:46:29;8.90;99.90
57108;DHT22;42987;52.916;6.542;2024-02-21T05:48:55;8.90;99.90
57108;DHT22;42987;52.916;6.542;2024-02-21T05:51:21;8.90;99.90
57108;DHT22;42987;52.916;6.542;2024-02-21T05:53:46;8.90;99.90
57108;DHT22;42987;52.916;6.542;2024-02-21T05:56:13;8.90;99.90
57108;DHT22;42987;52.916;6.542;2024-02-21T05:58:39;8.90;99.90
57108;DHT22;42987;52.916;6.542;2024-02-21T06:01:08;8.90;99.90
57108;DHT22;42987;52.916;6.542;2024-02-21T06:03:34;8.90;99.90
57108;DHT22;42987;52.916;6.542;2024-02-21T06:06:02;8.90;99.90
57108;DHT22;42987;52.916;6.542;2024-02-21T06:08:28;8.90;99.90
57108;DHT22;42987;52.916;6.542;2024-02-21T06:10:53;8.90;99.90
57108;DHT22;42987;52.916;6.542;2024-02-21T06:13:26;8.90;99.90
57108;DHT22;42987;52.916;6.542;2024-02-21T06:15:52;8.90;99.90
57108;DHT22;42987;52.916;6.542;2024-02-21T06:18:18;9.00;99.90
57108;DHT22;42987;52.916;6.542;2024-02-21T06:20:44;9.00;99.90
57108;DHT22;42987;52.916;6.542;2024-02-21T06:23:12;9.00;99.90
57108;DHT22;42987;52.916;6.542;2024-02-21T06:25:38;8.90;99.90
57108;DHT22;42987;52.916;6.542;2024-02-21T06:28:05;8.90;99.90
57108;DHT22;42987;52.916;6.542;2024-02-21T06:30:31;8.90;99.90
57108;DHT22;42987;52.916;6.542;2024-02-21T06:32:57;8.90;99.90
57108;DHT22;42987;52.916;6.542;2024-02-21T06:35:23;9.00;99.90
57108;DHT22;42987;52.916;6.542;2024-02-21T06:37:52;8.90;99.90
57108;DHT22;42987;52.916;6.542;2024-02-21T06:40:22;8.90;99.90
57108;DHT22;42987;52.916;6.542;2024-02-21T06:42:48;9.00;99.90
57108;DHT22;42987;52.916;6.542;2024-02-21T06:45:14;8.90;99.90
57108;DHT22;42987;52.916;6.542;2024-02-21T06:47:40;9.00;99.90
57108;DHT22;42987;52.916;6.542;2024-02-21T06:50:06;8.90;99.90
57108;DHT22;42987;52.916;6.542;2024-02-21T06:52:32;8.90;99.90
57108;DHT22;42987;52.916;6.542;2024-02-21T06:54:58;8.90;99.90
57108;DHT22;42987;52.916;6.542;2024-02-21T06:57:23;8.90;99.90
57108;DHT22;42987;52.916;6.542;2024-02-21T06:59:49;8.90;99.90
57108;DHT22;42987;52.916;6.542;2024-02-21T07:02:15;8.90;99.90
57108;DHT22;42987;52.916;6.542;2024-02-21T07:04:41;8.90;99.90
57108;DHT22;42987;52.916;6.542;2024-02-21T07:07:06;8.90;99.90
57108;DHT22;42987;52.916;6.542;2024-02-21T07:09:32;8.90;99.90
57108;DHT22;42987;52.916;6.542;2024-02-21T07:11:59;9.00;99.90
57108;DHT22;42987;52.916;6.542;2024-02-21T07:14:24;8.90;99.90
57108;DHT22;42987;52.916;6.542;2024-02-21T07:16:51;8.90;99.90
57108;DHT22;42987;52.916;6.542;2024-02-21T07:19:17;8.90;99.90
57108;DHT22;42987;52.916;6.542;2024-02-21T07:21:43;8.90;99.90
57108;DHT22;42987;52.916;6.542;2024-02-21T07:24:09;8.90;99.90
57108;DHT22;42987;52.916;6.542;2024-02-21T07:26:34;8.90;99.90
57108;DHT22;42987;52.916;6.542;2024-02-21T07:29:00;8.90;99.90
57108;DHT22;42987;52.916;6.542;2024-02-21T07:31:26;8.90;99.90
57108;DHT22;42987;52.916;6.542;2024-02-21T07:33:55;8.90;99.90
57108;DHT22;42987;52.916;6.542;2024-02-21T07:36:30;8.90;99.90
57108;DHT22;42987;52.916;6.542;2024-02-21T07:38:56;8.90;99.90
57108;DHT22;42987;52.916;6.542;2024-02-21T07:41:22;8.90;99.90
57108;DHT22;42987;52.916;6.542;2024-02-21T07:43:47;8.90;99.90
57108;DHT22;42987;52.916;6.542;2024-02-21T07:46:14;8.90;99.90
57108;DHT22;42987;52.916;6.542;2024-02-21T07:48:40;8.90;99.90
57108;DHT22;42987;52.916;6.542;2024-02-21T07:51:06;8.90;99.90
57108;DHT22;42987;52.916;6.542;2024-02-21T07:53:31;8.90;99.90
57108;DHT22;42987;52.916;6.542;2024-02-21T07:55:57;9.00;99.90
57108;DHT22;42987;52.916;6.542;2024-02-21T07:58:23;8.90;99.90
57108;DHT22;42987;52.916;6.542;2024-02-21T08:00:52;8.90;99.90
57108;DHT22;42987;52.916;6.542;2024-02-21T08:03:18;8.90;99.90
57108;DHT22;42987;52.916;6.542;2024-02-21T08:05:44;8.90;99.90
57108;DHT22;42987;52.916;6.542;2024-02-21T08:08:10;8.90;99.90
57108;DHT22;42987;52.916;6.542;2024-02-21T08:10:35;8.90;99.90
57108;DHT22;42987;52.916;6.542;2024-02-21T08:13:01;8.90;99.90
57108;DHT22;42987;52.916;6.542;2024-02-21T08:15:27;8.90;99.90
57108;DHT22;42987;52.916;6.542;2024-02-21T08:17:58;8.90;99.90
57108;DHT22;42987;52.916;6.542;2024-02-21T08:20:27;8.90;99.90
57108;DHT22;42987;52.916;6.542;2024-02-21T08:22:53;8.90;99.90
57108;DHT22;42987;52.916;6.542;2024-02-21T08:25:18;8.90;99.90
57108;DHT22;42987;52.916;6.542;2024-02-21T08:27:44;8.90;99.90
57108;DHT22;42987;52.916;6.542;2024-02-21T08:30:11;9.00;99.90
57108;DHT22;42987;52.916;6.542;2024-02-21T08:32:37;9.00;99.90
57108;DHT22;42987;52.916;6.542;2024-02-21T08:35:03;8.90;99.90
57108;DHT22;42987;52.916;6.542;2024-02-21T08:37:31;9.00;99.90
57108;DHT22;42987;52.916;6.542;2024-02-21T08:39:57;9.00;99.90
57108;DHT22;42987;52.916;6.542;2024-02-21T08:42:23;9.00;99.90
57108;DHT22;42987;52.916;6.542;2024-02-21T08:44:49;9.00;99.90
57108;DHT22;42987;52.916;6.542;2024-02-21T08:47:14;9.00;99.90
57108;DHT22;42987;52.916;6.542;2024-02-21T08:49:40;9.00;99.90
57108;DHT22;42987;52.916;6.542;2024-02-21T08:52:06;9.00;99.90
57108;DHT22;42987;52.916;6.542;2024-02-21T08:54:32;9.10;99.90
57108;DHT22;42987;52.916;6.542;2024-02-21T08:56:59;9.00;99.90
57108;DHT22;42987;52.916;6.542;2024-02-21T08:59:28;9.00;99.90
57108;DHT22;42987;52.916;6.542;2024-02-21T09:01:53;9.10;99.90
57108;DHT22;42987;52.916;6.542;2024-02-21T09:04:19;9.00;99.90
57108;DHT22;42987;52.916;6.542;2024-02-21T09:06:45;9.00;99.90
57108;DHT22;42987;52.916;6.542;2024-02-21T09:09:12;9.00;99.90
57108;DHT22;42987;52.916;6.542;2024-02-21T09:11:38;9.00;99.90
57108;DHT22;42987;52.916;6.542;2024-02-21T09:14:07;9.00;99.90
57108;DHT22;42987;52.916;6.542;2024-02-21T09:16:33;9.00;99.90
57108;DHT22;42987;52.916;6.542;2024-02-21T09:18:59;8.90;99.90
57108;DHT22;42987;52.916;6.542;2024-02-21T09:21:25;9.00;99.90
57108;DHT22;42987;52.916;6.542;2024-02-21T09:23:51;8.90;99.90
57108;DHT22;42987;52.916;6.542;2024-02-21T09:26:17;9.00;99.90
57108;DHT22;42987;52.916;6.542;2024-02-21T09:28:43;9.00;99.90
57108;DHT22;42987;52.916;6.542;2024-02-21T09:31:12;9.00;99.90
57108;DHT22;42987;52.916;6.542;2024-02-21T09:33:38;8.90;99.90
57108;DHT22;42987;52.916;6.542;2024-02-21T09:36:05;9.00;99.90
57108;DHT22;42987;52.916;6.542;2024-02-21T09:38:31;9.00;99.90
57108;DHT22;42987;52.916;6.542;2024-02-21T09:43:33;9.00;99.90
57108;DHT22;42987;52.916;6.542;2024-02-21T09:46:00;9.10;99.90
57108;DHT22;42987;52.916;6.542;2024-02-21T09:51:01;9.10;99.90
57108;DHT22;42987;52.916;6.542;2024-02-21T09:53:28;9.20;99.90
57108;DHT22;42987;52.916;6.542;2024-02-21T09:55:59;9.20;99.90
57108;DHT22;42987;52.916;6.542;2024-02-21T09:58:26;9.20;99.90
57108;DHT22;42987;52.916;6.542;2024-02-21T10:00:53;9.20;99.90
57108;DHT22;42987;52.916;6.542;2024-02-21T10:03:22;9.30;99.90
57108;DHT22;42987;52.916;6.542;2024-02-21T10:05:48;9.30;99.90
57108;DHT22;42987;52.916;6.542;2024-02-21T10:08:18;9.40;99.90
57108;DHT22;42987;52.916;6.542;2024-02-21T10:10:45;9.40;99.90
57108;DHT22;42987;52.916;6.542;2024-02-21T10:13:26;9.40;99.90
57108;DHT22;42987;52.916;6.542;2024-02-21T10:18:28;9.50;99.90
57108;DHT22;42987;52.916;6.542;2024-02-21T10:21:04;9.60;99.90
57108;DHT22;42987;52.916;6.542;2024-02-21T10:23:57;9.60;99.90
57108;DHT22;42987;52.916;6.542;2024-02-21T10:26:22;9.60;99.90
57108;DHT22;42987;52.916;6.542;2024-02-21T10:28:48;9.60;99.90
57108;DHT22;42987;52.916;6.542;2024-02-21T10:31:27;9.70;99.90
57108;DHT22;42987;52.916;6.542;2024-02-21T10:33:57;9.70;99.90
57108;DHT22;42987;52.916;6.542;2024-02-21T10:36:24;9.60;99.90
57108;DHT22;42987;52.916;6.542;2024-02-21T10:38:54;9.60;99.90
57108;DHT22;42987;52.916;6.542;2024-02-21T10:41:20;9.70;99.90
57108;DHT22;42987;52.916;6.542;2024-02-21T10:43:53;9.60;99.90
57108;DHT22;42987;52.916;6.542;2024-02-21T10:46:23;9.70;99.90
57108;DHT22;42987;52.916;6.542;2024-02-21T10:49:07;9.70;99.90
57108;DHT22;42987;52.916;6.542;2024-02-21T10:51:37;9.70;99.90
57108;DHT22;42987;52.916;6.542;2024-02-21T10:57:19;9.80;99.90
57108;DHT22;42987;52.916;6.542;2024-02-21T10:59:48;9.80;99.90
57108;DHT22;42987;52.916;6.542;2024-02-21T11:02:15;9.80;99.90
57108;DHT22;42987;52.916;6.542;2024-02-21T11:04:41;9.80;99.90
57108;DHT22;42987;52.916;6.542;2024-02-21T11:07:08;9.80;99.90
57108;DHT22;42987;52.916;6.542;2024-02-21T11:09:35;9.90;99.90
57108;DHT22;42987;52.916;6.542;2024-02-21T11:12:05;9.90;99.90
57108;DHT22;42987;52.916;6.542;2024-02-21T11:14:34;9.90;99.90
57108;DHT22;42987;52.916;6.542;2024-02-21T11:17:18;9.80;99.90
57108;DHT22;42987;52.916;6.542;2024-02-21T11:19:44;9.80;99.90
57108;DHT22;42987;52.916;6.542;2024-02-21T11:22:18;9.80;99.90
57108;DHT22;42987;52.916;6.542;2024-02-21T11:24:44;9.80;99.90
57108;DHT22;42987;52.916;6.542;2024-02-21T11:27:20;9.90;99.90
57108;DHT22;42987;52.916;6.542;2024-02-21T11:29:48;9.90;99.90
57108;DHT22;42987;52.916;6.542;2024-02-21T11:32:18;9.90;99.90
57108;DHT22;42987;52.916;6.542;2024-02-21T11:35:04;9.80;99.90
57108;DHT22;42987;52.916;6.542;2024-02-21T11:37:32;9.90;99.90
57108;DHT22;42987;52.916;6.542;2024-02-21T11:39:59;9.80;99.90
57108;DHT22;42987;52.916;6.542;2024-02-21T11:42:26;9.80;99.90
57108;DHT22;42987;52.916;6.542;2024-02-21T11:44:53;9.90;99.90
57108;DHT22;42987;52.916;6.542;2024-02-21T11:47:19;9.80;99.90
57108;DHT22;42987;52.916;6.542;2024-02-21T11:49:46;9.80;99.90
57108;DHT22;42987;52.916;6.542;2024-02-21T11:52:12;9.80;99.90
57108;DHT22;42987;52.916;6.542;2024-02-21T11:54:41;9.80;99.90
57108;DHT22;42987;52.916;6.542;2024-02-21T11:57:07;9.90;99.90
57108;DHT22;42987;52.916;6.542;2024-02-21T11:59:33;9.90;99.90
57108;DHT22;42987;52.916;6.542;2024-02-21T12:02:00;9.90;99.90
57108;DHT22;42987;52.916;6.542;2024-02-21T12:04:26;9.90;99.90
57108;DHT22;42987;52.916;6.542;2024-02-21T12:06:53;9.90;99.90
57108;DHT22;42987;52.916;6.542;2024-02-21T12:09:20;9.90;99.90
57108;DHT22;42987;52.916;6.542;2024-02-21T12:11:57;9.90;99.90
57108;DHT22;42987;52.916;6.542;2024-02-21T12:14:25;9.90;99.90
57108;DHT22;42987;52.916;6.542;2024-02-21T12:16:50;9.90;99.90
57108;DHT22;42987;52.916;6.542;2024-02-21T12:19:17;9.90;99.90
57108;DHT22;42987;52.916;6.542;2024-02-21T12:21:43;9.90;99.90
57108;DHT22;42987;52.916;6.542;2024-02-21T12:24:26;9.90;99.90
57108;DHT22;42987;52.916;6.542;2024-02-21T12:26:53;9.90;99.90
57108;DHT22;42987;52.916;6.542;2024-02-21T12:29:23;9.90;99.90
57108;DHT22;42987;52.916;6.542;2024-02-21T12:31:52;10.00;99.90
57108;DHT22;42987;52.916;6.542;2024-02-21T12:34:20;10.00;99.90
57108;DHT22;42987;52.916;6.542;2024-02-21T12:36:47;10.00;99.90
57108;DHT22;42987;52.916;6.542;2024-02-21T12:39:13;10.00;99.90
57108;DHT22;42987;52.916;6.542;2024-02-21T12:41:39;10.00;99.90
57108;DHT22;42987;52.916;6.542;2024-02-21T12:44:08;10.00;99.90
57108;DHT22;42987;52.916;6.542;2024-02-21T12:46:35;10.00;99.90
57108;DHT22;42987;52.916;6.542;2024-02-21T12:49:04;10.00;99.90
57108;DHT22;42987;52.916;6.542;2024-02-21T12:51:31;10.00;99.90
57108;DHT22;42987;52.916;6.542;2024-02-21T12:53:57;10.00;99.90
57108;DHT22;42987;52.916;6.542;2024-02-21T12:56:23;10.00;99.90
57108;DHT22;42987;52.916;6.542;2024-02-21T12:58:50;9.90;99.90
57108;DHT22;42987;52.916;6.542;2024-02-21T13:01:16;9.90;99.90
57108;DHT22;42987;52.916;6.542;2024-02-21T13:03:42;9.90;99.90
57108;DHT22;42987;52.916;6.542;2024-02-21T13:06:07;9.90;99.90
57108;DHT22;42987;52.916;6.542;2024-02-21T13:08:36;10.00;99.90
57108;DHT22;42987;52.916;6.542;2024-02-21T13:11:03;10.00;99.90
57108;DHT22;42987;52.916;6.542;2024-02-21T13:13:29;10.00;99.90
57108;DHT22;42987;52.916;6.542;2024-02-21T13:15:56;10.00;99.90
57108;DHT22;42987;52.916;6.542;2024-02-21T13:18:22;10.10;99.90
57108;DHT22;42987;52.916;6.542;2024-02-21T13:20:48;10.00;99.90
57108;DHT22;42987;52.916;6.542;2024-02-21T13:23:13;10.00;99.90
57108;DHT22;42987;52.916;6.542;2024-02-21T13:25:39;10.10;99.90
57108;DHT22;42987;52.916;6.542;2024-02-21T13:28:05;10.10;99.90
57108;DHT22;42987;52.916;6.542;2024-02-21T13:30:34;10.10;99.90
57108;DHT22;42987;52.916;6.542;2024-02-21T13:32:59;10.10;99.90
57108;DHT22;42987;52.916;6.542;2024-02-21T13:35:25;10.10;99.90
57108;DHT22;42987;52.916;6.542;2024-02-21T13:37:51;10.10;99.90
57108;DHT22;42987;52.916;6.542;2024-02-21T13:40:17;10.10;99.90
57108;DHT22;42987;52.916;6.542;2024-02-21T13:42:42;10.10;99.90
57108;DHT22;42987;52.916;6.542;2024-02-21T13:45:09;10.10;99.90
57108;DHT22;42987;52.916;6.542;2024-02-21T13:47:35;10.10;99.90
57108;DHT22;42987;52.916;6.542;2024-02-21T13:50:07;10.10;99.90
57108;DHT22;42987;52.916;6.542;2024-02-21T13:52:40;10.10;99.90
57108;DHT22;42987;52.916;6.542;2024-02-21T13:55:06;10.10;99.90
57108;DHT22;42987;52.916;6.542;2024-02-21T13:57:35;10.10;99.90
57108;DHT22;42987;52.916;6.542;2024-02-21T14:00:02;10.10;99.90
57108;DHT22;42987;52.916;6.542;2024-02-21T14:02:29;10.00;99.90
57108;DHT22;42987;52.916;6.542;2024-02-21T14:04:55;10.00;99.90
57108;DHT22;42987;52.916;6.542;2024-02-21T14:07:20;10.00;99.90
57108;DHT22;42987;52.916;6.542;2024-02-21T14:09:46;10.00;99.90
57108;DHT22;42987;52.916;6.542;2024-02-21T14:12:12;10.00;99.90
57108;DHT22;42987;52.916;6.542;2024-02-21T14:14:38;10.00;99.90
57108;DHT22;42987;52.916;6.542;2024-02-21T14:17:04;10.00;99.90
57108;DHT22;42987;52.916;6.542;2024-02-21T14:19:30;9.90;99.90
57108;DHT22;42987;52.916;6.542;2024-02-21T14:21:56;9.90;99.90
57108;DHT22;42987;52.916;6.542;2024-02-21T14:24:23;9.90;99.90
57108;DHT22;42987;52.916;6.542;2024-02-21T14:26:49;9.80;99.90
57108;DHT22;42987;52.916;6.542;2024-02-21T14:29:15;9.80;99.90
57108;DHT22;42987;52.916;6.542;2024-02-21T14:31:40;9.80;99.90
57108;DHT22;42987;52.916;6.542;2024-02-21T14:34:06;9.80;99.90
57108;DHT22;42987;52.916;6.542;2024-02-21T14:36:33;9.80;99.90
57108;DHT22;42987;52.916;6.542;2024-02-21T14:38:59;9.80;99.90
57108;DHT22;42987;52.916;6.542;2024-02-21T14:41:25;9.80;99.90
57108;DHT22;42987;52.916;6.542;2024-02-21T14:43:51;9.80;99.90
57108;DHT22;42987;52.916;6.542;2024-02-21T14:46:17;9.80;99.90
57108;DHT22;42987;52.916;6.542;2024-02-21T14:48:43;9.80;99.90
57108;DHT22;42987;52.916;6.542;2024-02-21T14:51:10;9.80;99.90
57108;DHT22;42987;52.916;6.542;2024-02-21T14:53:42;9.80;99.90
57108;DHT22;42987;52.916;6.542;2024-02-21T14:56:13;9.80;99.90
57108;DHT22;42987;52.916;6.542;2024-02-21T14:58:41;9.80;99.90
57108;DHT22;42987;52.916;6.542;2024-02-21T15:01:10;9.80;99.90
57108;DHT22;42987;52.916;6.542;2024-02-21T15:03:36;9.80;99.90
57108;DHT22;42987;52.916;6.542;2024-02-21T15:06:05;9.80;99.90
57108;DHT22;42987;52.916;6.542;2024-02-21T15:08:30;9.80;99.90
57108;DHT22;42987;52.916;6.542;2024-02-21T15:10:59;9.80;99.90
57108;DHT22;42987;52.916;6.542;2024-02-21T15:13:24;9.70;99.90
57108;DHT22;42987;52.916;6.542;2024-02-21T15:15:52;9.70;99.90
57108;DHT22;42987;52.916;6.542;2024-02-21T15:18:17;9.80;99.90
57108;DHT22;42987;52.916;6.542;2024-02-21T15:20:44;9.70;99.90
57108;DHT22;42987;52.916;6.542;2024-02-21T15:23:10;9.70;99.90
57108;DHT22;42987;52.916;6.542;2024-02-21T15:25:36;9.70;99.90
57108;DHT22;42987;52.916;6.542;2024-02-21T15:28:03;9.70;99.90
57108;DHT22;42987;52.916;6.542;2024-02-21T15:30:30;9.80;99.90
57108;DHT22;42987;52.916;6.542;2024-02-21T15:32:59;9.70;99.90
57108;DHT22;42987;52.916;6.542;2024-02-21T15:35:28;9.70;99.90
57108;DHT22;42987;52.916;6.542;2024-02-21T15:37:54;9.80;99.90
57108;DHT22;42987;52.916;6.542;2024-02-21T15:40:23;9.80;99.90
57108;DHT22;42987;52.916;6.542;2024-02-21T15:42:49;9.80;99.90
57108;DHT22;42987;52.916;6.542;2024-02-21T15:45:15;9.80;99.90
57108;DHT22;42987;52.916;6.542;2024-02-21T15:47:41;9.80;99.90
57108;DHT22;42987;52.916;6.542;2024-02-21T15:50:08;9.80;99.90
57108;DHT22;42987;52.916;6.542;2024-02-21T15:52:36;9.80;99.90
57108;DHT22;42987;52.916;6.542;2024-02-21T15:55:05;9.80;99.90
57108;DHT22;42987;52.916;6.542;2024-02-21T15:57:32;9.80;99.90